sensor_id;sensor_type;location;lat;lon;timestamp;pressure;altitude;pressure_sealevel;temperature;humidity
14295;BME280;7231;59.370;18.016;2022-08-03T00:01:45;101090.78;;;16.69;79.50
14295;BME280;7231;59.370;18.016;2022-08-03T00:04:14;101076.66;;;16.69;79.30
14295;BME280;7231;59.370;18.016;2022-08-03T00:06:42;101085.50;;;16.71;79.25
14295;BME280;7231;59.370;18.016;2022-08-03T00:09:10;101071.38;;;16.69;79.54
14295;BME280;7231;59.370;18.016;2022-08-03T00:11:38;101072.28;;;16.74;79.74
14295;BME280;7231;59.370;18.016;2022-08-03T00:14:07;101060.84;;;16.81;79.40
14295;BME280;7231;59.370;18.016;2022-08-03T00:16:35;101059.09;;;16.80;78.93
14295;BME280;7231;59.370;18.016;2022-08-03T00:19:03;101059.06;;;16.78;78.56
14295;BME280;7231;59.370;18.016;2022-08-03T00:21:33;101052.91;;;16.79;78.50
14295;BME280;7231;59.370;18.016;2022-08-03T00:24:00;101059.97;;;16.80;78.29
14295;BME280;7231;59.370;18.016;2022-08-03T00:26:29;101073.22;;;16.82;77.97
14295;BME280;7231;59.370;18.016;2022-08-03T00:28:57;101054.59;;;16.67;77.95
14295;BME280;7231;59.370;18.016;2022-08-03T00:31:25;101071.44;;;16.78;77.87
14295;BME280;7231;59.370;18.016;2022-08-03T00:34:13;101039.59;;;16.69;77.93
14295;BME280;7231;59.370;18.016;2022-08-03T00:36:42;101064.38;;;16.80;77.56
14295;BME280;7231;59.370;18.016;2022-08-03T00:39:10;101057.34;;;16.82;77.11
14295;BME280;7231;59.370;18.016;2022-08-03T00:41:38;101063.53;;;16.82;76.73
14295;BME280;7231;59.370;18.016;2022-08-03T00:44:06;101067.00;;;16.77;76.31
14295;BME280;7231;59.370;18.016;2022-08-03T00:46:34;101051.06;;;16.69;76.02
14295;BME280;7231;59.370;18.016;2022-08-03T00:49:02;101061.69;;;16.71;75.86
14295;BME280;7231;59.370;18.016;2022-08-03T00:51:31;101059.91;;;16.68;75.48
14295;BME280;7231;59.370;18.016;2022-08-03T00:54:02;101056.34;;;16.66;75.19
14295;BME280;7231;59.370;18.016;2022-08-03T00:56:30;101068.69;;;16.66;74.52
14295;BME280;7231;59.370;18.016;2022-08-03T00:58:58;101064.28;;;16.65;73.88
14295;BME280;7231;59.370;18.016;2022-08-03T01:01:26;101057.16;;;16.62;73.48
14295;BME280;7231;59.370;18.016;2022-08-03T01:03:58;101062.47;;;16.61;73.50
14295;BME280;7231;59.370;18.016;2022-08-03T01:06:33;101051.81;;;16.51;73.30
14295;BME280;7231;59.370;18.016;2022-08-03T01:09:08;101070.38;;;16.56;73.18
14295;BME280;7231;59.370;18.016;2022-08-03T01:11:43;101051.78;;;16.50;72.82
14295;BME280;7231;59.370;18.016;2022-08-03T01:14:33;101059.72;;;16.50;72.63
14295;BME280;7231;59.370;18.016;2022-08-03T01:17:06;101056.19;;;16.48;72.63
14295;BME280;7231;59.370;18.016;2022-08-03T01:19:49;101055.25;;;16.41;72.93
14295;BME280;7231;59.370;18.016;2022-08-03T01:22:39;101058.78;;;16.40;73.13
14295;BME280;7231;59.370;18.016;2022-08-03T01:25:23;101055.22;;;16.38;73.30
14295;BME280;7231;59.370;18.016;2022-08-03T01:28:01;101058.75;;;16.36;73.33
14295;BME280;7231;59.370;18.016;2022-08-03T01:30:40;101062.25;;;16.33;73.47
14295;BME280;7231;59.370;18.016;2022-08-03T01:33:14;101065.75;;;16.32;73.62
14295;BME280;7231;59.370;18.016;2022-08-03T01:35:47;101060.44;;;16.26;74.08
14295;BME280;7231;59.370;18.016;2022-08-03T01:38:22;101045.34;;;16.17;74.33
14295;BME280;7231;59.370;18.016;2022-08-03T01:40:51;101037.44;;;16.19;74.49
14295;BME280;7231;59.370;18.016;2022-08-03T01:43:24;101055.13;;;16.24;74.50
14295;BME280;7231;59.370;18.016;2022-08-03T01:46:17;101037.44;;;16.19;74.86
14295;BME280;7231;59.370;18.016;2022-08-03T01:48:47;101024.97;;;16.06;75.11
14295;BME280;7231;59.370;18.016;2022-08-03T01:51:17;100994.81;;;15.85;75.40
14295;BME280;7231;59.370;18.016;2022-08-03T01:53:47;101033.88;;;16.17;75.69
14295;BME280;7231;59.370;18.016;2022-08-03T01:56:18;101029.50;;;16.20;75.92
14295;BME280;7231;59.370;18.016;2022-08-03T01:58:49;101024.22;;;16.19;75.90
14295;BME280;7231;59.370;18.016;2022-08-03T02:01:21;100998.50;;;16.03;75.93
14295;BME280;7231;59.370;18.016;2022-08-03T02:04:12;101018.00;;;16.14;75.89
14295;BME280;7231;59.370;18.016;2022-08-03T02:06:42;101033.09;;;16.26;76.27
14295;BME280;7231;59.370;18.016;2022-08-03T02:09:28;100989.63;;;15.98;76.25
14295;BME280;7231;59.370;18.016;2022-08-03T02:11:58;101039.31;;;16.35;76.13
14295;BME280;7231;59.370;18.016;2022-08-03T02:14:28;101041.09;;;16.36;75.94
14295;BME280;7231;59.370;18.016;2022-08-03T02:16:59;101041.97;;;16.34;75.80
14295;BME280;7231;59.370;18.016;2022-08-03T02:19:27;101026.91;;;16.25;75.62
14295;BME280;7231;59.370;18.016;2022-08-03T02:22:02;100881.69;;;15.45;75.32
14295;BME280;7231;59.370;18.016;2022-08-03T02:24:31;101037.56;;;16.37;75.20
14295;BME280;7231;59.370;18.016;2022-08-03T02:27:05;101017.22;;;16.27;74.97
14295;BME280;7231;59.370;18.016;2022-08-03T02:29:35;101033.19;;;16.39;74.67
14295;BME280;7231;59.370;18.016;2022-08-03T02:32:13;101019.03;;;16.36;74.99
14295;BME280;7231;59.370;18.016;2022-08-03T02:34:46;101024.31;;;16.34;74.89
14295;BME280;7231;59.370;18.016;2022-08-03T02:37:17;101006.56;;;16.19;74.83
14295;BME280;7231;59.370;18.016;2022-08-03T02:39:46;101034.00;;;16.31;75.04
14295;BME280;7231;59.370;18.016;2022-08-03T02:42:20;101026.94;;;16.28;75.12
14295;BME280;7231;59.370;18.016;2022-08-03T02:44:52;101036.63;;;16.26;75.30
14295;BME280;7231;59.370;18.016;2022-08-03T02:47:25;101030.47;;;16.30;75.33
14295;BME280;7231;59.370;18.016;2022-08-03T02:50:15;101034.88;;;16.30;75.14
14295;BME280;7231;59.370;18.016;2022-08-03T02:52:44;101024.28;;;16.30;75.23
14295;BME280;7231;59.370;18.016;2022-08-03T02:55:15;101030.47;;;16.30;75.47
14295;BME280;7231;59.370;18.016;2022-08-03T02:57:47;101026.03;;;16.26;75.64
14295;BME280;7231;59.370;18.016;2022-08-03T03:00:16;101019.88;;;16.27;75.63
14295;BME280;7231;59.370;18.016;2022-08-03T03:02:56;101035.75;;;16.27;75.76
14295;BME280;7231;59.370;18.016;2022-08-03T03:05:26;101037.50;;;16.27;75.63
14295;BME280;7231;59.370;18.016;2022-08-03T03:08:17;101027.81;;;16.30;75.83
14295;BME280;7231;59.370;18.016;2022-08-03T03:10:54;101019.00;;;16.31;75.39
14295;BME280;7231;59.370;18.016;2022-08-03T03:13:23;101021.63;;;16.28;75.21
14295;BME280;7231;59.370;18.016;2022-08-03T03:15:53;101021.63;;;16.28;75.16
14295;BME280;7231;59.370;18.016;2022-08-03T03:18:26;101011.94;;;16.29;75.18
14295;BME280;7231;59.370;18.016;2022-08-03T03:20:55;101009.31;;;16.33;75.12
14295;BME280;7231;59.370;18.016;2022-08-03T03:23:25;101005.78;;;16.31;74.87
14295;BME280;7231;59.370;18.016;2022-08-03T03:25:55;100992.53;;;16.28;75.13
14295;BME280;7231;59.370;18.016;2022-08-03T03:28:24;101001.38;;;16.32;74.77
14295;BME280;7231;59.370;18.016;2022-08-03T03:30:53;101002.28;;;16.35;74.92
14295;BME280;7231;59.370;18.016;2022-08-03T03:33:21;101007.56;;;16.35;74.85
14295;BME280;7231;59.370;18.016;2022-08-03T03:35:51;100965.91;;;16.05;74.73
14295;BME280;7231;59.370;18.016;2022-08-03T03:38:20;101012.78;;;16.26;74.80
14295;BME280;7231;59.370;18.016;2022-08-03T03:40:48;101010.13;;;16.23;75.10
14295;BME280;7231;59.370;18.016;2022-08-03T03:43:16;101008.38;;;16.23;75.10
14295;BME280;7231;59.370;18.016;2022-08-03T03:45:46;101018.06;;;16.23;74.96
14295;BME280;7231;59.370;18.016;2022-08-03T03:48:14;101008.34;;;16.19;75.00
14295;BME280;7231;59.370;18.016;2022-08-03T03:50:42;101011.81;;;16.15;74.98
14295;BME280;7231;59.370;18.016;2022-08-03T03:53:13;100987.88;;;15.98;75.21
14295;BME280;7231;59.370;18.016;2022-08-03T03:55:42;101015.34;;;16.14;75.17
14295;BME280;7231;59.370;18.016;2022-08-03T03:58:29;100971.06;;;15.88;74.89
14295;BME280;7231;59.370;18.016;2022-08-03T04:00:57;101017.94;;;16.09;75.00
14295;BME280;7231;59.370;18.016;2022-08-03T04:03:25;101017.03;;;16.06;75.18
14295;BME280;7231;59.370;18.016;2022-08-03T04:05:53;100971.91;;;15.84;75.16
14295;BME280;7231;59.370;18.016;2022-08-03T04:08:40;101021.47;;;16.07;75.32
14295;BME280;7231;59.370;18.016;2022-08-03T04:11:50;101007.38;;;16.09;75.52
14295;BME280;7231;59.370;18.016;2022-08-03T04:14:21;101016.25;;;16.16;75.17
14295;BME280;7231;59.370;18.016;2022-08-03T04:16:52;101013.66;;;16.22;75.30
14295;BME280;7231;59.370;18.016;2022-08-03T04:19:25;101023.41;;;16.29;75.35
14295;BME280;7231;59.370;18.016;2022-08-03T04:21:56;101010.19;;;16.32;75.13
14295;BME280;7231;59.370;18.016;2022-08-03T04:24:38;101015.53;;;16.38;75.09
14295;BME280;7231;59.370;18.016;2022-08-03T04:27:08;101021.78;;;16.46;75.09
14295;BME280;7231;59.370;18.016;2022-08-03T04:29:40;101024.47;;;16.55;74.93
14295;BME280;7231;59.370;18.016;2022-08-03T04:32:15;101005.94;;;16.55;74.82
14295;BME280;7231;59.370;18.016;2022-08-03T04:34:44;100984.69;;;16.45;74.32
14295;BME280;7231;59.370;18.016;2022-08-03T04:37:18;101019.34;;;16.78;74.48
14295;BME280;7231;59.370;18.016;2022-08-03T04:39:53;101023.81;;;16.84;74.07
14295;BME280;7231;59.370;18.016;2022-08-03T04:42:24;101022.06;;;16.87;73.85
14295;BME280;7231;59.370;18.016;2022-08-03T04:44:53;101020.31;;;16.93;73.78
14295;BME280;7231;59.370;18.016;2022-08-03T04:47:28;101019.47;;;17.01;73.74
14295;BME280;7231;59.370;18.016;2022-08-03T04:49:56;101018.63;;;17.08;73.62
14295;BME280;7231;59.370;18.016;2022-08-03T04:52:24;101022.19;;;17.16;73.29
14295;BME280;7231;59.370;18.016;2022-08-03T04:54:54;101012.47;;;17.17;73.06
14295;BME280;7231;59.370;18.016;2022-08-03T04:57:22;101013.41;;;17.30;72.95
14295;BME280;7231;59.370;18.016;2022-08-03T04:59:51;101002.78;;;17.27;72.75
14295;BME280;7231;59.370;18.016;2022-08-03T05:02:29;101030.22;;;17.38;72.81
14295;BME280;7231;59.370;18.016;2022-08-03T05:04:57;101025.81;;;17.40;72.85
14295;BME280;7231;59.370;18.016;2022-08-03T05:07:25;101008.13;;;17.40;72.99
14295;BME280;7231;59.370;18.016;2022-08-03T05:10:04;101032.03;;;17.49;72.97
14295;BME280;7231;59.370;18.016;2022-08-03T05:12:40;101034.69;;;17.52;72.61
14295;BME280;7231;59.370;18.016;2022-08-03T05:15:09;101030.28;;;17.59;72.64
14295;BME280;7231;59.370;18.016;2022-08-03T05:17:37;101031.16;;;17.58;72.69
14295;BME280;7231;59.370;18.016;2022-08-03T05:20:06;101027.63;;;17.59;73.15
14295;BME280;7231;59.370;18.016;2022-08-03T05:22:34;101024.16;;;17.69;72.73
14295;BME280;7231;59.370;18.016;2022-08-03T05:25:04;101027.69;;;17.71;72.59
14295;BME280;7231;59.370;18.016;2022-08-03T05:27:32;101034.75;;;17.72;72.54
14295;BME280;7231;59.370;18.016;2022-08-03T05:30:00;101030.34;;;17.76;72.64
14295;BME280;7231;59.370;18.016;2022-08-03T05:32:49;101028.59;;;17.90;72.70
14295;BME280;7231;59.370;18.016;2022-08-03T05:35:17;100974.59;;;17.59;72.47
14295;BME280;7231;59.370;18.016;2022-08-03T05:38:05;101027.72;;;17.94;72.56
14295;BME280;7231;59.370;18.016;2022-08-03T05:40:36;101024.19;;;18.03;72.82
14295;BME280;7231;59.370;18.016;2022-08-03T05:43:12;101029.50;;;18.16;72.83
14295;BME280;7231;59.370;18.016;2022-08-03T05:45:40;101033.00;;;18.22;72.58
14295;BME280;7231;59.370;18.016;2022-08-03T05:48:08;100999.41;;;18.08;72.58
14295;BME280;7231;59.370;18.016;2022-08-03T05:50:36;101034.78;;;18.29;72.41
14295;BME280;7231;59.370;18.016;2022-08-03T05:53:08;101034.78;;;18.33;72.46
14295;BME280;7231;59.370;18.016;2022-08-03T05:55:38;101029.44;;;18.42;73.05
14295;BME280;7231;59.370;18.016;2022-08-03T05:58:06;101023.25;;;18.51;72.70
14295;BME280;7231;59.370;18.016;2022-08-03T06:00:36;101031.22;;;18.49;72.66
14295;BME280;7231;59.370;18.016;2022-08-03T06:03:05;101023.25;;;18.51;72.61
14295;BME280;7231;59.370;18.016;2022-08-03T06:05:33;101018.81;;;18.48;72.71
14295;BME280;7231;59.370;18.016;2022-08-03T06:08:09;101030.34;;;18.61;72.91
14295;BME280;7231;59.370;18.016;2022-08-03T06:10:42;101036.53;;;18.68;72.70
14295;BME280;7231;59.370;18.016;2022-08-03T06:13:10;101020.56;;;18.59;72.67
14295;BME280;7231;59.370;18.016;2022-08-03T06:15:38;101019.69;;;18.57;72.78
14295;BME280;7231;59.370;18.016;2022-08-03T06:18:06;101000.25;;;18.42;73.35
14295;BME280;7231;59.370;18.016;2022-08-03T06:20:34;101036.53;;;18.65;73.05
14295;BME280;7231;59.370;18.016;2022-08-03T06:23:03;101030.31;;;18.72;73.24
14295;BME280;7231;59.370;18.016;2022-08-03T06:25:32;101032.09;;;18.71;73.08
14295;BME280;7231;59.370;18.016;2022-08-03T06:28:02;101039.16;;;18.75;73.21
14295;BME280;7231;59.370;18.016;2022-08-03T06:30:31;101031.19;;;18.78;73.37
14295;BME280;7231;59.370;18.016;2022-08-03T06:32:59;101038.25;;;18.90;73.32
14295;BME280;7231;59.370;18.016;2022-08-03T06:35:27;101039.09;;;19.00;73.18
14295;BME280;7231;59.370;18.016;2022-08-03T06:37:55;101036.47;;;18.92;73.33
14295;BME280;7231;59.370;18.016;2022-08-03T06:40:23;101039.09;;;19.00;73.13
14295;BME280;7231;59.370;18.016;2022-08-03T06:42:55;101020.53;;;18.89;73.25
14295;BME280;7231;59.370;18.016;2022-08-03T06:45:24;101029.41;;;18.88;73.39
14295;BME280;7231;59.370;18.016;2022-08-03T06:48:01;101038.22;;;18.98;73.22
14295;BME280;7231;59.370;18.016;2022-08-03T06:50:30;101047.09;;;18.97;73.38
14295;BME280;7231;59.370;18.016;2022-08-03T06:52:59;101046.22;;;18.93;73.29
14295;BME280;7231;59.370;18.016;2022-08-03T06:55:27;101037.38;;;18.90;73.44
14295;BME280;7231;59.370;18.016;2022-08-03T06:57:55;101057.69;;;19.03;73.41
14295;BME280;7231;59.370;18.016;2022-08-03T07:00:30;101009.94;;;18.74;73.09
14295;BME280;7231;59.370;18.016;2022-08-03T07:02:58;101062.16;;;18.90;73.44
14295;BME280;7231;59.370;18.016;2022-08-03T07:05:26;101061.28;;;18.82;73.61
14295;BME280;7231;59.370;18.016;2022-08-03T07:07:54;101044.47;;;18.85;74.17
14295;BME280;7231;59.370;18.016;2022-08-03T07:10:25;101044.41;;;19.00;74.19
14295;BME280;7231;59.370;18.016;2022-08-03T07:12:53;101047.00;;;19.20;74.04
14295;BME280;7231;59.370;18.016;2022-08-03T07:15:23;101029.25;;;19.25;73.88
14295;BME280;7231;59.370;18.016;2022-08-03T07:18:12;101045.16;;;19.40;73.58
14295;BME280;7231;59.370;18.016;2022-08-03T07:20:40;101042.44;;;19.46;73.36
14295;BME280;7231;59.370;18.016;2022-08-03T07:23:08;101040.66;;;19.56;73.37
14295;BME280;7231;59.370;18.016;2022-08-03T07:25:44;101037.06;;;19.63;72.96
14295;BME280;7231;59.370;18.016;2022-08-03T07:28:12;101030.88;;;19.59;72.80
14295;BME280;7231;59.370;18.016;2022-08-03T07:30:41;101024.69;;;19.57;72.87
14295;BME280;7231;59.370;18.016;2022-08-03T07:33:09;101029.13;;;19.58;73.09
14295;BME280;7231;59.370;18.016;2022-08-03T07:35:38;101024.69;;;19.57;73.28
14295;BME280;7231;59.370;18.016;2022-08-03T07:38:06;100995.47;;;19.46;73.79
14295;BME280;7231;59.370;18.016;2022-08-03T07:40:34;101019.09;;;19.97;74.99
14295;BME280;7231;59.370;18.016;2022-08-03T07:43:02;101029.19;;;20.65;75.23
14295;BME280;7231;59.370;18.016;2022-08-03T07:45:30;101015.97;;;21.30;74.84
14295;BME280;7231;59.370;18.016;2022-08-03T07:47:59;100993.50;;;22.06;73.23
14295;BME280;7231;59.370;18.016;2022-08-03T07:50:27;101013.25;;;22.96;69.63
14295;BME280;7231;59.370;18.016;2022-08-03T07:52:57;100966.63;;;23.09;66.51
14295;BME280;7231;59.370;18.016;2022-08-03T07:55:25;101007.44;;;23.19;64.63
14295;BME280;7231;59.370;18.016;2022-08-03T07:58:01;101011.44;;;23.40;64.66
14295;BME280;7231;59.370;18.016;2022-08-03T08:00:30;101008.72;;;23.41;63.90
14295;BME280;7231;59.370;18.016;2022-08-03T08:02:58;101006.03;;;23.41;63.28
14295;BME280;7231;59.370;18.016;2022-08-03T08:05:27;101008.66;;;23.43;62.80
14295;BME280;7231;59.370;18.016;2022-08-03T08:07:56;101009.09;;;23.24;62.71
14295;BME280;7231;59.370;18.016;2022-08-03T08:10:24;101018.75;;;23.31;63.57
14295;BME280;7231;59.370;18.016;2022-08-03T08:12:52;101012.59;;;23.28;61.90
14295;BME280;7231;59.370;18.016;2022-08-03T08:15:21;101020.50;;;22.91;62.29
14295;BME280;7231;59.370;18.016;2022-08-03T08:17:50;100960.00;;;22.38;62.65
14295;BME280;7231;59.370;18.016;2022-08-03T08:20:20;101025.41;;;22.66;63.27
14295;BME280;7231;59.370;18.016;2022-08-03T08:22:58;101017.03;;;22.37;63.08
14295;BME280;7231;59.370;18.016;2022-08-03T08:25:29;101026.22;;;22.20;63.53
14295;BME280;7231;59.370;18.016;2022-08-03T08:27:58;101021.94;;;22.10;64.16
14295;BME280;7231;59.370;18.016;2022-08-03T08:30:48;101029.75;;;22.22;64.82
14295;BME280;7231;59.370;18.016;2022-08-03T08:33:16;101019.00;;;22.25;64.86
14295;BME280;7231;59.370;18.016;2022-08-03T08:35:51;101028.56;;;22.40;65.58
14295;BME280;7231;59.370;18.016;2022-08-03T08:38:21;101011.31;;;22.58;65.23
14295;BME280;7231;59.370;18.016;2022-08-03T08:40:49;101012.91;;;22.66;65.02
14295;BME280;7231;59.370;18.016;2022-08-03T08:43:17;101004.81;;;22.71;64.17
14295;BME280;7231;59.370;18.016;2022-08-03T08:45:47;101016.44;;;22.68;64.56
14295;BME280;7231;59.370;18.016;2022-08-03T08:48:17;101022.59;;;22.74;64.24
14295;BME280;7231;59.370;18.016;2022-08-03T08:50:52;101000.59;;;22.58;63.76
14295;BME280;7231;59.370;18.016;2022-08-03T08:53:22;101006.88;;;22.57;64.20
14295;BME280;7231;59.370;18.016;2022-08-03T08:55:54;100997.88;;;22.61;63.72
14295;BME280;7231;59.370;18.016;2022-08-03T09:00:55;100990.75;;;22.61;65.04
14295;BME280;7231;59.370;18.016;2022-08-03T09:03:23;100995.63;;;23.29;64.69
14295;BME280;7231;59.370;18.016;2022-08-03T09:05:57;100993.94;;;24.01;63.25
14295;BME280;7231;59.370;18.016;2022-08-03T09:08:27;100942.19;;;24.34;62.08
14295;BME280;7231;59.370;18.016;2022-08-03T09:10:55;100984.81;;;25.38;60.00
14295;BME280;7231;59.370;18.016;2022-08-03T09:13:24;100952.09;;;25.54;57.92
14295;BME280;7231;59.370;18.016;2022-08-03T09:16:11;100974.13;;;26.18;58.40
14295;BME280;7231;59.370;18.016;2022-08-03T09:18:40;100986.75;;;26.68;56.74
14295;BME280;7231;59.370;18.016;2022-08-03T09:21:16;100979.47;;;26.95;55.21
14295;BME280;7231;59.370;18.016;2022-08-03T09:24:00;100975.06;;;27.40;53.05
14295;BME280;7231;59.370;18.016;2022-08-03T09:26:32;100982.56;;;27.09;52.54
14295;BME280;7231;59.370;18.016;2022-08-03T09:29:02;100986.19;;;27.08;53.22
14295;BME280;7231;59.370;18.016;2022-08-03T09:31:42;100986.53;;;26.99;52.49
14295;BME280;7231;59.370;18.016;2022-08-03T09:34:13;100995.31;;;27.04;52.37
14295;BME280;7231;59.370;18.016;2022-08-03T09:36:43;100991.22;;;27.17;51.78
14295;BME280;7231;59.370;18.016;2022-08-03T09:39:14;101001.00;;;27.43;51.35
14295;BME280;7231;59.370;18.016;2022-08-03T09:41:43;101000.75;;;27.72;50.47
14295;BME280;7231;59.370;18.016;2022-08-03T09:44:12;101009.25;;;26.90;50.91
14295;BME280;7231;59.370;18.016;2022-08-03T09:46:53;101008.59;;;26.59;51.18
14295;BME280;7231;59.370;18.016;2022-08-03T09:49:22;100922.84;;;25.73;51.99
14295;BME280;7231;59.370;18.016;2022-08-03T09:51:51;101006.22;;;26.23;51.76
14295;BME280;7231;59.370;18.016;2022-08-03T09:54:42;100991.09;;;26.47;51.94
14295;BME280;7231;59.370;18.016;2022-08-03T09:57:20;101002.13;;;26.89;51.53
14295;BME280;7231;59.370;18.016;2022-08-03T09:59:49;100992.03;;;27.19;50.57
14295;BME280;7231;59.370;18.016;2022-08-03T10:02:28;101002.13;;;26.64;50.49
14295;BME280;7231;59.370;18.016;2022-08-03T10:04:56;101005.19;;;26.27;51.17
14295;BME280;7231;59.370;18.016;2022-08-03T10:07:25;100997.38;;;26.19;52.04
14295;BME280;7231;59.370;18.016;2022-08-03T10:09:56;100995.69;;;26.43;51.45
14295;BME280;7231;59.370;18.016;2022-08-03T10:12:45;100990.41;;;26.14;52.19
14295;BME280;7231;59.370;18.016;2022-08-03T10:15:14;100990.47;;;26.12;52.24
14295;BME280;7231;59.370;18.016;2022-08-03T10:18:03;100987.72;;;25.60;53.28
14295;BME280;7231;59.370;18.016;2022-08-03T10:20:33;100978.94;;;25.54;53.39
14295;BME280;7231;59.370;18.016;2022-08-03T10:23:04;100983.28;;;25.59;53.49
14295;BME280;7231;59.370;18.016;2022-08-03T10:25:36;100991.03;;;25.69;53.96
14295;BME280;7231;59.370;18.016;2022-08-03T10:28:07;100984.69;;;25.72;53.28
14295;BME280;7231;59.370;18.016;2022-08-03T10:30:39;100975.56;;;25.48;54.21
14295;BME280;7231;59.370;18.016;2022-08-03T10:33:11;100982.00;;;25.42;54.80
14295;BME280;7231;59.370;18.016;2022-08-03T10:36:02;100982.41;;;25.29;55.05
14295;BME280;7231;59.370;18.016;2022-08-03T10:38:36;100981.31;;;25.36;55.94
14295;BME280;7231;59.370;18.016;2022-08-03T10:41:06;100951.09;;;25.29;55.31
14295;BME280;7231;59.370;18.016;2022-08-03T10:43:41;100969.69;;;25.35;55.06
14295;BME280;7231;59.370;18.016;2022-08-03T10:46:15;100978.06;;;25.24;55.78
14295;BME280;7231;59.370;18.016;2022-08-03T10:48:46;100976.13;;;25.30;55.92
14295;BME280;7231;59.370;18.016;2022-08-03T10:51:16;100974.63;;;25.49;55.52
14295;BME280;7231;59.370;18.016;2022-08-03T10:53:44;100972.94;;;25.46;54.89
14295;BME280;7231;59.370;18.016;2022-08-03T10:56:41;100968.94;;;25.01;55.56
14295;BME280;7231;59.370;18.016;2022-08-03T10:59:57;100933.66;;;24.83;56.85
14295;BME280;7231;59.370;18.016;2022-08-03T11:05:29;100967.38;;;24.61;56.11
14295;BME280;7231;59.370;18.016;2022-08-03T11:08:16;100986.41;;;24.52;57.13
14295;BME280;7231;59.370;18.016;2022-08-03T11:10:45;100998.38;;;24.39;56.95
14295;BME280;7231;59.370;18.016;2022-08-03T11:13:17;100988.13;;;24.19;57.72
14295;BME280;7231;59.370;18.016;2022-08-03T11:15:48;100991.75;;;24.16;57.86
14295;BME280;7231;59.370;18.016;2022-08-03T11:18:16;100982.97;;;24.11;58.25
14295;BME280;7231;59.370;18.016;2022-08-03T11:20:46;100956.72;;;23.90;58.62
14295;BME280;7231;59.370;18.016;2022-08-03T11:23:16;100978.75;;;24.01;59.04
14295;BME280;7231;59.370;18.016;2022-08-03T11:26:11;100977.69;;;24.08;59.22
14295;BME280;7231;59.370;18.016;2022-08-03T11:28:42;100986.41;;;24.16;59.70
14295;BME280;7231;59.370;18.016;2022-08-03T11:34:23;100987.97;;;24.59;59.21
14295;BME280;7231;59.370;18.016;2022-08-03T11:37:22;100982.69;;;24.88;59.13
14295;BME280;7231;59.370;18.016;2022-08-03T11:39:59;100978.41;;;25.14;57.57
14295;BME280;7231;59.370;18.016;2022-08-03T11:42:41;100986.06;;;24.97;57.30
14295;BME280;7231;59.370;18.016;2022-08-03T11:45:15;100970.84;;;24.96;57.26
14295;BME280;7231;59.370;18.016;2022-08-03T11:47:45;100966.66;;;25.18;57.67
14295;BME280;7231;59.370;18.016;2022-08-03T11:50:17;100958.44;;;25.52;57.20
14295;BME280;7231;59.370;18.016;2022-08-03T11:52:48;100958.53;;;25.77;57.35
14295;BME280;7231;59.370;18.016;2022-08-03T11:55:17;100965.91;;;25.98;56.15
14295;BME280;7231;59.370;18.016;2022-08-03T11:57:48;100919.19;;;25.48;55.28
14295;BME280;7231;59.370;18.016;2022-08-03T12:00:37;100966.56;;;25.49;56.16
14295;BME280;7231;59.370;18.016;2022-08-03T12:03:08;100949.78;;;25.42;56.08
14295;BME280;7231;59.370;18.016;2022-08-03T12:05:44;100911.19;;;25.74;56.95
14295;BME280;7231;59.370;18.016;2022-08-03T12:08:27;100953.41;;;26.22;55.27
14295;BME280;7231;59.370;18.016;2022-08-03T12:10:58;100957.00;;;25.70;55.33
14295;BME280;7231;59.370;18.016;2022-08-03T12:13:36;100954.31;;;25.96;56.56
14295;BME280;7231;59.370;18.016;2022-08-03T12:16:25;100957.44;;;26.60;55.56
14295;BME280;7231;59.370;18.016;2022-08-03T12:18:55;100950.72;;;27.20;53.88
14295;BME280;7231;59.370;18.016;2022-08-03T12:21:23;100938.16;;;27.66;52.94
14295;BME280;7231;59.370;18.016;2022-08-03T12:23:55;100961.81;;;28.23;50.88
14295;BME280;7231;59.370;18.016;2022-08-03T12:26:25;100941.28;;;28.19;50.83
14295;BME280;7231;59.370;18.016;2022-08-03T12:28:53;100945.22;;;28.32;51.31
14295;BME280;7231;59.370;18.016;2022-08-03T12:31:21;100939.09;;;28.49;50.25
14295;BME280;7231;59.370;18.016;2022-08-03T12:33:58;100934.72;;;28.65;49.72
14295;BME280;7231;59.370;18.016;2022-08-03T12:36:29;100937.00;;;28.74;50.02
14295;BME280;7231;59.370;18.016;2022-08-03T12:38:59;100931.88;;;28.89;48.72
14295;BME280;7231;59.370;18.016;2022-08-03T12:41:29;100936.31;;;28.90;49.01
14295;BME280;7231;59.370;18.016;2022-08-03T12:43:58;100934.50;;;28.70;50.01
14295;BME280;7231;59.370;18.016;2022-08-03T12:46:31;100939.69;;;28.95;49.82
14295;BME280;7231;59.370;18.016;2022-08-03T12:49:03;100930.22;;;29.05;48.84
14295;BME280;7231;59.370;18.016;2022-08-03T12:51:34;100930.50;;;29.36;48.32
14295;BME280;7231;59.370;18.016;2022-08-03T12:54:03;100939.91;;;30.01;47.54
14295;BME280;7231;59.370;18.016;2022-08-03T12:56:32;100938.50;;;30.12;46.88
14295;BME280;7231;59.370;18.016;2022-08-03T12:59:00;100952.47;;;29.66;47.48
14295;BME280;7231;59.370;18.016;2022-08-03T13:01:36;100947.97;;;29.48;47.27
14295;BME280;7231;59.370;18.016;2022-08-03T13:04:30;100941.06;;;29.03;47.89
14295;BME280;7231;59.370;18.016;2022-08-03T13:07:00;100945.69;;;28.42;48.94
14295;BME280;7231;59.370;18.016;2022-08-03T13:09:30;100926.03;;;27.98;49.10
14295;BME280;7231;59.370;18.016;2022-08-03T13:12:09;100925.50;;;27.68;50.09
14295;BME280;7231;59.370;18.016;2022-08-03T13:14:38;100945.00;;;27.51;50.33
14295;BME280;7231;59.370;18.016;2022-08-03T13:17:06;100956.31;;;27.37;51.46
14295;BME280;7231;59.370;18.016;2022-08-03T13:19:37;100951.97;;;27.11;51.71
14295;BME280;7231;59.370;18.016;2022-08-03T13:22:12;100954.09;;;26.78;52.14
14295;BME280;7231;59.370;18.016;2022-08-03T13:24:48;100926.78;;;26.14;52.99
14295;BME280;7231;59.370;18.016;2022-08-03T13:27:17;100923.47;;;26.06;54.53